sensor_id;sensor_type;location;lat;lon;timestamp;P1;durP1;ratioP1;P2;durP2;ratioP2
54937;SDS011;52756;52.826;6.214;2023-04-01T00:01:31;6.68;;;4.15;;
54937;SDS011;52756;52.826;6.214;2023-04-01T00:03:57;4.82;;;3.92;;
54937;SDS011;52756;52.826;6.214;2023-04-01T00:06:23;5.55;;;4.05;;
54937;SDS011;52756;52.826;6.214;2023-04-01T00:08:49;6.18;;;4.55;;
54937;SDS011;52756;52.826;6.214;2023-04-01T00:11:15;6.00;;;4.38;;
54937;SDS011;52756;52.826;6.214;2023-04-01T00:13:41;5.25;;;3.92;;
54937;SDS011;52756;52.826;6.214;2023-04-01T00:16:07;5.60;;;4.00;;
54937;SDS011;52756;52.826;6.214;2023-04-01T00:18:33;6.38;;;3.80;;
54937;SDS011;52756;52.826;6.214;2023-04-01T00:20:59;5.38;;;4.28;;
54937;SDS011;52756;52.826;6.214;2023-04-01T00:23:25;5.07;;;3.92;;
54937;SDS011;52756;52.826;6.214;2023-04-01T00:25:51;4.90;;;4.00;;
54937;SDS011;52756;52.826;6.214;2023-04-01T00:28:17;6.93;;;4.60;;
54937;SDS011;52756;52.826;6.214;2023-04-01T00:30:44;5.07;;;3.92;;
54937;SDS011;52756;52.826;6.214;2023-04-01T00:33:12;5.35;;;3.78;;
54937;SDS011;52756;52.826;6.214;2023-04-01T00:35:38;6.65;;;3.85;;
54937;SDS011;52756;52.826;6.214;2023-04-01T00:38:04;4.80;;;3.78;;
54937;SDS011;52756;52.826;6.214;2023-04-01T00:40:35;6.18;;;4.28;;
54937;SDS011;52756;52.826;6.214;2023-04-01T00:43:17;5.18;;;4.13;;
54937;SDS011;52756;52.826;6.214;2023-04-01T00:45:44;7.82;;;4.70;;
54937;SDS011;52756;52.826;6.214;2023-04-01T00:50:44;5.75;;;3.92;;
54937;SDS011;52756;52.826;6.214;2023-04-01T00:53:13;5.72;;;4.00;;
54937;SDS011;52756;52.826;6.214;2023-04-01T00:55:42;6.13;;;4.53;;
54937;SDS011;52756;52.826;6.214;2023-04-01T00:58:14;5.55;;;4.15;;
54937;SDS011;52756;52.826;6.214;2023-04-01T01:00:42;5.68;;;3.92;;
54937;SDS011;52756;52.826;6.214;2023-04-01T01:03:08;5.00;;;3.83;;
54937;SDS011;52756;52.826;6.214;2023-04-01T01:05:57;7.63;;;4.75;;
54937;SDS011;52756;52.826;6.214;2023-04-01T01:08:54;5.43;;;4.15;;
54937;SDS011;52756;52.826;6.214;2023-04-01T01:11:40;5.55;;;4.25;;
54937;SDS011;52756;52.826;6.214;2023-04-01T01:17:09;5.95;;;4.75;;
54937;SDS011;52756;52.826;6.214;2023-04-01T01:19:48;6.60;;;4.43;;
54937;SDS011;52756;52.826;6.214;2023-04-01T01:30:51;5.95;;;4.25;;
54937;SDS011;52756;52.826;6.214;2023-04-01T01:33:30;7.82;;;4.50;;
54937;SDS011;52756;52.826;6.214;2023-04-01T01:36:18;6.40;;;4.45;;
54937;SDS011;52756;52.826;6.214;2023-04-01T01:38:46;7.13;;;6.13;;
54937;SDS011;52756;52.826;6.214;2023-04-01T01:41:13;9.38;;;6.75;;
54937;SDS011;52756;52.826;6.214;2023-04-01T01:43:43;7.95;;;6.60;;
54937;SDS011;52756;52.826;6.214;2023-04-01T01:46:13;8.48;;;6.72;;
54937;SDS011;52756;52.826;6.214;2023-04-01T01:48:42;10.75;;;8.20;;
54937;SDS011;52756;52.826;6.214;2023-04-01T01:51:11;11.15;;;8.57;;
54937;SDS011;52756;52.826;6.214;2023-04-01T01:53:36;8.52;;;6.85;;
54937;SDS011;52756;52.826;6.214;2023-04-01T01:56:03;9.98;;;7.25;;
54937;SDS011;52756;52.826;6.214;2023-04-01T01:58:30;10.98;;;8.32;;
54937;SDS011;52756;52.826;6.214;2023-04-01T02:01:13;7.47;;;5.07;;
54937;SDS011;52756;52.826;6.214;2023-04-01T02:03:42;8.90;;;5.95;;
54937;SDS011;52756;52.826;6.214;2023-04-01T02:06:10;7.25;;;4.80;;
54937;SDS011;52756;52.826;6.214;2023-04-01T02:08:43;6.68;;;4.72;;
54937;SDS011;52756;52.826;6.214;2023-04-01T02:11:10;8.50;;;5.13;;
54937;SDS011;52756;52.826;6.214;2023-04-01T02:16:15;6.72;;;5.00;;
54937;SDS011;52756;52.826;6.214;2023-04-01T02:18:47;5.70;;;4.65;;
54937;SDS011;52756;52.826;6.214;2023-04-01T02:21:15;7.18;;;4.72;;
54937;SDS011;52756;52.826;6.214;2023-04-01T02:23:43;5.45;;;4.63;;
54937;SDS011;52756;52.826;6.214;2023-04-01T02:26:11;7.47;;;4.78;;
54937;SDS011;52756;52.826;6.214;2023-04-01T02:28:39;7.45;;;5.38;;
54937;SDS011;52756;52.826;6.214;2023-04-01T02:31:08;6.65;;;5.05;;
54937;SDS011;52756;52.826;6.214;2023-04-01T02:33:36;5.40;;;4.45;;
54937;SDS011;52756;52.826;6.214;2023-04-01T02:36:04;5.50;;;4.55;;
54937;SDS011;52756;52.826;6.214;2023-04-01T02:38:30;6.10;;;4.57;;
54937;SDS011;52756;52.826;6.214;2023-04-01T02:40:57;6.63;;;4.57;;
54937;SDS011;52756;52.826;6.214;2023-04-01T02:43:25;6.63;;;4.65;;
54937;SDS011;52756;52.826;6.214;2023-04-01T02:45:51;7.30;;;4.95;;
54937;SDS011;52756;52.826;6.214;2023-04-01T02:48:17;6.10;;;4.90;;
54937;SDS011;52756;52.826;6.214;2023-04-01T02:50:43;6.20;;;4.20;;
54937;SDS011;52756;52.826;6.214;2023-04-01T02:53:09;6.88;;;4.50;;
54937;SDS011;52756;52.826;6.214;2023-04-01T02:55:34;6.85;;;4.28;;
54937;SDS011;52756;52.826;6.214;2023-04-01T02:58:00;5.80;;;4.78;;
54937;SDS011;52756;52.826;6.214;2023-04-01T03:00:26;6.32;;;4.88;;
54937;SDS011;52756;52.826;6.214;2023-04-01T03:02:52;5.82;;;4.80;;
54937;SDS011;52756;52.826;6.214;2023-04-01T03:05:19;5.60;;;4.57;;
54937;SDS011;52756;52.826;6.214;2023-04-01T03:07:45;6.43;;;4.75;;
54937;SDS011;52756;52.826;6.214;2023-04-01T03:10:11;6.35;;;5.00;;
54937;SDS011;52756;52.826;6.214;2023-04-01T03:12:37;8.90;;;5.18;;
54937;SDS011;52756;52.826;6.214;2023-04-01T03:15:03;6.70;;;4.90;;
54937;SDS011;52756;52.826;6.214;2023-04-01T03:17:29;6.68;;;5.60;;
54937;SDS011;52756;52.826;6.214;2023-04-01T03:19:55;7.25;;;5.10;;
54937;SDS011;52756;52.826;6.214;2023-04-01T03:22:21;6.25;;;4.78;;
54937;SDS011;52756;52.826;6.214;2023-04-01T03:24:47;6.50;;;5.13;;
54937;SDS011;52756;52.826;6.214;2023-04-01T03:27:13;7.38;;;4.85;;
54937;SDS011;52756;52.826;6.214;2023-04-01T03:29:39;6.80;;;4.80;;
54937;SDS011;52756;52.826;6.214;2023-04-01T03:32:05;7.53;;;5.00;;
54937;SDS011;52756;52.826;6.214;2023-04-01T03:34:31;7.50;;;4.97;;
54937;SDS011;52756;52.826;6.214;2023-04-01T03:36:57;8.02;;;5.35;;
54937;SDS011;52756;52.826;6.214;2023-04-01T03:39:23;5.90;;;5.28;;
54937;SDS011;52756;52.826;6.214;2023-04-01T03:41:49;8.43;;;5.30;;
54937;SDS011;52756;52.826;6.214;2023-04-01T03:44:15;6.32;;;5.13;;
54937;SDS011;52756;52.826;6.214;2023-04-01T03:46:41;6.53;;;5.70;;
54937;SDS011;52756;52.826;6.214;2023-04-01T03:49:07;7.00;;;5.18;;
54937;SDS011;52756;52.826;6.214;2023-04-01T03:51:37;8.35;;;5.07;;
54937;SDS011;52756;52.826;6.214;2023-04-01T03:54:07;6.88;;;5.65;;
54937;SDS011;52756;52.826;6.214;2023-04-01T03:56:34;6.53;;;5.25;;
54937;SDS011;52756;52.826;6.214;2023-04-01T03:59:03;7.97;;;5.82;;
54937;SDS011;52756;52.826;6.214;2023-04-01T04:01:30;8.68;;;6.35;;
54937;SDS011;52756;52.826;6.214;2023-04-01T04:03:57;9.48;;;6.13;;
54937;SDS011;52756;52.826;6.214;2023-04-01T04:06:23;8.30;;;6.60;;
54937;SDS011;52756;52.826;6.214;2023-04-01T04:08:53;9.82;;;6.50;;
54937;SDS011;52756;52.826;6.214;2023-04-01T04:11:19;9.68;;;6.25;;
54937;SDS011;52756;52.826;6.214;2023-04-01T04:13:47;8.50;;;6.15;;
54937;SDS011;52756;52.826;6.214;2023-04-01T04:16:13;7.97;;;5.78;;
54937;SDS011;52756;52.826;6.214;2023-04-01T04:18:39;9.15;;;6.60;;
54937;SDS011;52756;52.826;6.214;2023-04-01T04:21:05;6.93;;;5.43;;
54937;SDS011;52756;52.826;6.214;2023-04-01T04:23:31;7.75;;;5.80;;
54937;SDS011;52756;52.826;6.214;2023-04-01T04:26:09;7.88;;;6.18;;
54937;SDS011;52756;52.826;6.214;2023-04-01T04:28:37;8.73;;;6.15;;
54937;SDS011;52756;52.826;6.214;2023-04-01T04:31:03;7.78;;;5.90;;
54937;SDS011;52756;52.826;6.214;2023-04-01T04:33:33;6.72;;;5.82;;
54937;SDS011;52756;52.826;6.214;2023-04-01T04:36:00;8.35;;;5.90;;
54937;SDS011;52756;52.826;6.214;2023-04-01T04:38:27;7.65;;;6.05;;
54937;SDS011;52756;52.826;6.214;2023-04-01T04:40:53;8.07;;;5.78;;
54937;SDS011;52756;52.826;6.214;2023-04-01T04:43:19;7.55;;;5.93;;
54937;SDS011;52756;52.826;6.214;2023-04-01T04:45:45;7.07;;;5.68;;
54937;SDS011;52756;52.826;6.214;2023-04-01T04:48:11;7.35;;;5.82;;
54937;SDS011;52756;52.826;6.214;2023-04-01T04:50:41;8.02;;;5.30;;
54937;SDS011;52756;52.826;6.214;2023-04-01T04:53:11;7.88;;;5.95;;
54937;SDS011;52756;52.826;6.214;2023-04-01T04:55:37;7.38;;;5.68;;
54937;SDS011;52756;52.826;6.214;2023-04-01T04:58:07;8.65;;;5.75;;
54937;SDS011;52756;52.826;6.214;2023-04-01T05:00:33;8.55;;;6.18;;
54937;SDS011;52756;52.826;6.214;2023-04-01T05:02:59;8.88;;;5.88;;
54937;SDS011;52756;52.826;6.214;2023-04-01T05:05:25;8.50;;;5.65;;
54937;SDS011;52756;52.826;6.214;2023-04-01T05:07:51;7.53;;;5.95;;
54937;SDS011;52756;52.826;6.214;2023-04-01T05:10:16;7.63;;;5.90;;
54937;SDS011;52756;52.826;6.214;2023-04-01T05:12:42;8.15;;;6.07;;
54937;SDS011;52756;52.826;6.214;2023-04-01T05:15:08;7.95;;;5.72;;
54937;SDS011;52756;52.826;6.214;2023-04-01T05:17:34;9.65;;;6.40;;
54937;SDS011;52756;52.826;6.214;2023-04-01T05:20:00;8.93;;;6.13;;
54937;SDS011;52756;52.826;6.214;2023-04-01T05:22:26;9.70;;;6.07;;
54937;SDS011;52756;52.826;6.214;2023-04-01T05:24:52;10.30;;;6.40;;
54937;SDS011;52756;52.826;6.214;2023-04-01T05:27:18;8.50;;;5.93;;
54937;SDS011;52756;52.826;6.214;2023-04-01T05:29:43;9.18;;;6.43;;
54937;SDS011;52756;52.826;6.214;2023-04-01T05:32:09;8.90;;;5.50;;
54937;SDS011;52756;52.826;6.214;2023-04-01T05:34:35;8.93;;;5.70;;
54937;SDS011;52756;52.826;6.214;2023-04-01T05:37:00;10.32;;;6.30;;
54937;SDS011;52756;52.826;6.214;2023-04-01T05:39:26;8.45;;;5.40;;
54937;SDS011;52756;52.826;6.214;2023-04-01T05:41:52;8.48;;;5.22;;
54937;SDS011;52756;52.826;6.214;2023-04-01T05:44:18;8.25;;;5.10;;
54937;SDS011;52756;52.826;6.214;2023-04-01T05:46:43;7.28;;;5.18;;
54937;SDS011;52756;52.826;6.214;2023-04-01T05:49:09;6.50;;;4.55;;
54937;SDS011;52756;52.826;6.214;2023-04-01T05:51:35;6.28;;;4.68;;
54937;SDS011;52756;52.826;6.214;2023-04-01T05:54:00;6.18;;;4.78;;
54937;SDS011;52756;52.826;6.214;2023-04-01T05:56:26;7.10;;;5.43;;
54937;SDS011;52756;52.826;6.214;2023-04-01T05:58:53;7.13;;;4.78;;
54937;SDS011;52756;52.826;6.214;2023-04-01T06:01:19;9.27;;;5.03;;
54937;SDS011;52756;52.826;6.214;2023-04-01T06:03:45;8.10;;;4.68;;
54937;SDS011;52756;52.826;6.214;2023-04-01T06:06:15;7.63;;;4.80;;
54937;SDS011;52756;52.826;6.214;2023-04-01T06:08:45;7.38;;;4.65;;
54937;SDS011;52756;52.826;6.214;2023-04-01T06:11:29;6.65;;;4.50;;
54937;SDS011;52756;52.826;6.214;2023-04-01T06:28:07;6.07;;;4.15;;
54937;SDS011;52756;52.826;6.214;2023-04-01T06:45:01;5.47;;;4.10;;
54937;SDS011;52756;52.826;6.214;2023-04-01T06:56:34;7.30;;;4.72;;
54937;SDS011;52756;52.826;6.214;2023-04-01T06:59:15;7.63;;;5.05;;
54937;SDS011;52756;52.826;6.214;2023-04-01T07:01:57;6.20;;;4.10;;
54937;SDS011;52756;52.826;6.214;2023-04-01T07:04:37;7.93;;;5.07;;
54937;SDS011;52756;52.826;6.214;2023-04-01T07:07:19;7.22;;;5.45;;
54937;SDS011;52756;52.826;6.214;2023-04-01T07:09:54;9.15;;;6.18;;
54937;SDS011;52756;52.826;6.214;2023-04-01T07:12:33;9.55;;;5.85;;
54937;SDS011;52756;52.826;6.214;2023-04-01T07:15:30;6.95;;;5.40;;
54937;SDS011;52756;52.826;6.214;2023-04-01T07:18:05;8.48;;;6.13;;
54937;SDS011;52756;52.826;6.214;2023-04-01T07:20:41;8.05;;;5.80;;
54937;SDS011;52756;52.826;6.214;2023-04-01T07:26:23;8.18;;;5.22;;
54937;SDS011;52756;52.826;6.214;2023-04-01T07:28:51;7.10;;;5.15;;
54937;SDS011;52756;52.826;6.214;2023-04-01T07:39:20;5.47;;;3.95;;
54937;SDS011;52756;52.826;6.214;2023-04-01T07:42:01;5.10;;;4.07;;
54937;SDS011;52756;52.826;6.214;2023-04-01T07:55:16;4.32;;;2.78;;
54937;SDS011;52756;52.826;6.214;2023-04-01T07:58:10;3.95;;;2.88;;
54937;SDS011;52756;52.826;6.214;2023-04-01T08:03:38;4.20;;;3.10;;
54937;SDS011;52756;52.826;6.214;2023-04-01T08:06:12;4.03;;;2.80;;
54937;SDS011;52756;52.826;6.214;2023-04-01T08:09:22;5.35;;;3.95;;
54937;SDS011;52756;52.826;6.214;2023-04-01T08:14:12;6.70;;;4.00;;
54937;SDS011;52756;52.826;6.214;2023-04-01T08:22:10;6.15;;;4.78;;
54937;SDS011;52756;52.826;6.214;2023-04-01T08:24:47;6.68;;;5.35;;
54937;SDS011;52756;52.826;6.214;2023-04-01T08:30:23;7.18;;;5.53;;
54937;SDS011;52756;52.826;6.214;2023-04-01T08:36:16;8.88;;;6.80;;
54937;SDS011;52756;52.826;6.214;2023-04-01T08:38:32;9.80;;;7.20;;
54937;SDS011;52756;52.826;6.214;2023-04-01T08:41:19;9.02;;;7.10;;
54937;SDS011;52756;52.826;6.214;2023-04-01T08:57:15;10.13;;;8.10;;
54937;SDS011;52756;52.826;6.214;2023-04-01T09:11:08;12.88;;;8.85;;
54937;SDS011;52756;52.826;6.214;2023-04-01T09:18:41;10.55;;;8.45;;
54937;SDS011;52756;52.826;6.214;2023-04-01T09:30:04;9.77;;;8.07;;
54937;SDS011;52756;52.826;6.214;2023-04-01T09:40:54;11.68;;;8.57;;
54937;SDS011;52756;52.826;6.214;2023-04-01T09:43:33;10.07;;;7.78;;
54937;SDS011;52756;52.826;6.214;2023-04-01T09:57:18;7.20;;;6.30;;
54937;SDS011;52756;52.826;6.214;2023-04-01T10:00:20;7.72;;;5.95;;
54937;SDS011;52756;52.826;6.214;2023-04-01T10:03:34;7.15;;;5.63;;
54937;SDS011;52756;52.826;6.214;2023-04-01T10:17:59;10.10;;;8.40;;
54937;SDS011;52756;52.826;6.214;2023-04-01T10:40:17;10.90;;;8.90;;
54937;SDS011;52756;52.826;6.214;2023-04-01T10:45:35;11.13;;;9.18;;
54937;SDS011;52756;52.826;6.214;2023-04-01T10:54:06;10.60;;;9.30;;
54937;SDS011;52756;52.826;6.214;2023-04-01T10:57:00;11.30;;;9.52;;
54937;SDS011;52756;52.826;6.214;2023-04-01T11:11:10;5.75;;;4.22;;
54937;SDS011;52756;52.826;6.214;2023-04-01T11:23:03;6.03;;;4.28;;
54937;SDS011;52756;52.826;6.214;2023-04-01T11:25:56;5.70;;;4.00;;
54937;SDS011;52756;52.826;6.214;2023-04-01T11:33:37;5.60;;;4.70;;
54937;SDS011;52756;52.826;6.214;2023-04-01T11:42:07;5.63;;;4.63;;
54937;SDS011;52756;52.826;6.214;2023-04-01T11:56:24;4.57;;;4.07;;
54937;SDS011;52756;52.826;6.214;2023-04-01T12:04:37;5.82;;;4.65;;
54937;SDS011;52756;52.826;6.214;2023-04-01T12:12:46;4.53;;;4.03;;
54937;SDS011;52756;52.826;6.214;2023-04-01T12:15:26;4.85;;;3.78;;
54937;SDS011;52756;52.826;6.214;2023-04-01T12:18:09;3.58;;;3.05;;
54937;SDS011;52756;52.826;6.214;2023-04-01T12:20:45;3.58;;;3.05;;
54937;SDS011;52756;52.826;6.214;2023-04-01T12:23:22;3.75;;;3.35;;
54937;SDS011;52756;52.826;6.214;2023-04-01T12:29:16;3.25;;;2.55;;
54937;SDS011;52756;52.826;6.214;2023-04-01T12:31:59;3.70;;;2.95;;
54937;SDS011;52756;52.826;6.214;2023-04-01T12:37:11;3.60;;;2.88;;
54937;SDS011;52756;52.826;6.214;2023-04-01T12:50:45;5.45;;;3.63;;
54937;SDS011;52756;52.826;6.214;2023-04-01T12:53:45;4.55;;;3.50;;
54937;SDS011;52756;52.826;6.214;2023-04-01T12:56:40;4.07;;;3.40;;
54937;SDS011;52756;52.826;6.214;2023-04-01T13:10:38;4.35;;;3.55;;
54937;SDS011;52756;52.826;6.214;2023-04-01T13:23:36;4.15;;;3.53;;
54937;SDS011;52756;52.826;6.214;2023-04-01T13:32:03;3.28;;;2.75;;
54937;SDS011;52756;52.826;6.214;2023-04-01T13:37:24;3.58;;;2.63;;
54937;SDS011;52756;52.826;6.214;2023-04-01T13:40:20;4.90;;;3.05;;
54937;SDS011;52756;52.826;6.214;2023-04-01T13:42:59;4.43;;;2.90;;
54937;SDS011;52756;52.826;6.214;2023-04-01T13:57:16;3.58;;;2.85;;
54937;SDS011;52756;52.826;6.214;2023-04-01T14:05:28;3.40;;;2.80;;
54937;SDS011;52756;52.826;6.214;2023-04-01T14:18:59;2.85;;;2.50;;
54937;SDS011;52756;52.826;6.214;2023-04-01T14:27:41;2.97;;;2.65;;
54937;SDS011;52756;52.826;6.214;2023-04-01T14:33:06;3.03;;;2.50;;
54937;SDS011;52756;52.826;6.214;2023-04-01T14:35:50;3.13;;;2.10;;
54937;SDS011;52756;52.826;6.214;2023-04-01T14:38:42;2.20;;;1.98;;
54937;SDS011;52756;52.826;6.214;2023-04-01T14:45:25;2.83;;;2.00;;
54937;SDS011;52756;52.826;6.214;2023-04-01T14:51:23;2.75;;;2.03;;
54937;SDS011;52756;52.826;6.214;2023-04-01T14:54:06;2.83;;;2.08;;
54937;SDS011;52756;52.826;6.214;2023-04-01T14:56:38;2.72;;;1.95;;
54937;SDS011;52756;52.826;6.214;2023-04-01T14:59:25;3.97;;;2.00;;
54937;SDS011;52756;52.826;6.214;2023-04-01T15:07:48;2.38;;;1.77;;
54937;SDS011;52756;52.826;6.214;2023-04-01T15:10:40;2.35;;;1.90;;
54937;SDS011;52756;52.826;6.214;2023-04-01T15:21:25;2.47;;;1.80;;
54937;SDS011;52756;52.826;6.214;2023-04-01T15:35:53;2.42;;;2.00;;
54937;SDS011;52756;52.826;6.214;2023-04-01T15:52:50;2.42;;;2.00;;
54937;SDS011;52756;52.826;6.214;2023-04-01T15:58:34;5.22;;;2.40;;
54937;SDS011;52756;52.826;6.214;2023-04-01T16:01:35;4.25;;;2.63;;
54937;SDS011;52756;52.826;6.214;2023-04-01T16:04:19;3.50;;;2.90;;
54937;SDS011;52756;52.826;6.214;2023-04-01T16:07:19;2.85;;;2.35;;
54937;SDS011;52756;52.826;6.214;2023-04-01T16:27:07;3.20;;;2.20;;
54937;SDS011;52756;52.826;6.214;2023-04-01T16:32:59;2.33;;;2.13;;
54937;SDS011;52756;52.826;6.214;2023-04-01T16:36:05;3.22;;;2.72;;
54937;SDS011;52756;52.826;6.214;2023-04-01T16:44:54;4.47;;;3.40;;
54937;SDS011;52756;52.826;6.214;2023-04-01T16:47:34;3.92;;;2.88;;
54937;SDS011;52756;52.826;6.214;2023-04-01T16:50:13;5.63;;;3.53;;
54937;SDS011;52756;52.826;6.214;2023-04-01T17:01:08;5.72;;;3.70;;
54937;SDS011;52756;52.826;6.214;2023-04-01T17:03:49;5.03;;;3.92;;
54937;SDS011;52756;52.826;6.214;2023-04-01T17:06:21;5.38;;;3.90;;
54937;SDS011;52756;52.826;6.214;2023-04-01T17:15:02;6.20;;;4.05;;
54937;SDS011;52756;52.826;6.214;2023-04-01T17:17:38;4.15;;;3.30;;
54937;SDS011;52756;52.826;6.214;2023-04-01T17:23:25;7.35;;;4.07;;
54937;SDS011;52756;52.826;6.214;2023-04-01T17:26:17;5.03;;;3.65;;
54937;SDS011;52756;52.826;6.214;2023-04-01T17:28:58;6.43;;;4.45;;
54937;SDS011;52756;52.826;6.214;2023-04-01T17:31:43;6.28;;;4.18;;
54937;SDS011;52756;52.826;6.214;2023-04-01T17:42:13;7.00;;;4.30;;
54937;SDS011;52756;52.826;6.214;2023-04-01T17:45:16;4.80;;;3.80;;
54937;SDS011;52756;52.826;6.214;2023-04-01T17:47:49;6.95;;;3.88;;
54937;SDS011;52756;52.826;6.214;2023-04-01T17:50:22;6.32;;;4.20;;
54937;SDS011;52756;52.826;6.214;2023-04-01T17:53:14;5.22;;;3.75;;
54937;SDS011;52756;52.826;6.214;2023-04-01T17:56:06;5.43;;;3.85;;
54937;SDS011;52756;52.826;6.214;2023-04-01T18:01:30;8.15;;;6.53;;
54937;SDS011;52756;52.826;6.214;2023-04-01T18:04:18;5.95;;;4.35;;
54937;SDS011;52756;52.826;6.214;2023-04-01T18:15:03;5.30;;;4.30;;
54937;SDS011;52756;52.826;6.214;2023-04-01T18:20:40;6.38;;;4.93;;
54937;SDS011;52756;52.826;6.214;2023-04-01T18:23:27;7.20;;;4.88;;
54937;SDS011;52756;52.826;6.214;2023-04-01T18:26:23;8.15;;;4.70;;
54937;SDS011;52756;52.826;6.214;2023-04-01T18:31:45;12.63;;;5.20;;
54937;SDS011;52756;52.826;6.214;2023-04-01T18:34:18;7.75;;;5.93;;
54937;SDS011;52756;52.826;6.214;2023-04-01T18:39:47;10.07;;;5.97;;
54937;SDS011;52756;52.826;6.214;2023-04-01T18:45:34;7.65;;;5.38;;
54937;SDS011;52756;52.826;6.214;2023-04-01T18:52:02;6.05;;;5.00;;
54937;SDS011;52756;52.826;6.214;2023-04-01T18:53:57;8.93;;;6.47;;
54937;SDS011;52756;52.826;6.214;2023-04-01T18:56:30;8.23;;;5.35;;
54937;SDS011;52756;52.826;6.214;2023-04-01T18:59:16;6.68;;;4.80;;
54937;SDS011;52756;52.826;6.214;2023-04-01T19:04:45;6.18;;;4.40;;
54937;SDS011;52756;52.826;6.214;2023-04-01T19:07:46;5.35;;;4.25;;
54937;SDS011;52756;52.826;6.214;2023-04-01T19:10:26;5.68;;;4.57;;
54937;SDS011;52756;52.826;6.214;2023-04-01T19:24:07;7.05;;;5.15;;
54937;SDS011;52756;52.826;6.214;2023-04-01T19:29:39;7.60;;;5.60;;
54937;SDS011;52756;52.826;6.214;2023-04-01T19:34:49;7.60;;;5.35;;
54937;SDS011;52756;52.826;6.214;2023-04-01T19:37:26;7.88;;;5.35;;
54937;SDS011;52756;52.826;6.214;2023-04-01T19:40:58;7.50;;;5.57;;
54937;SDS011;52756;52.826;6.214;2023-04-01T19:43:15;8.95;;;5.78;;
54937;SDS011;52756;52.826;6.214;2023-04-01T19:45:51;7.18;;;4.85;;
54937;SDS011;52756;52.826;6.214;2023-04-01T19:48:34;8.60;;;5.22;;
54937;SDS011;52756;52.826;6.214;2023-04-01T19:55:02;7.45;;;5.25;;
54937;SDS011;52756;52.826;6.214;2023-04-01T19:57:45;8.63;;;5.20;;
54937;SDS011;52756;52.826;6.214;2023-04-01T20:00:21;8.00;;;5.13;;
54937;SDS011;52756;52.826;6.214;2023-04-01T20:14:07;9.85;;;6.05;;
54937;SDS011;52756;52.826;6.214;2023-04-01T20:17:02;9.57;;;6.35;;
54937;SDS011;52756;52.826;6.214;2023-04-01T20:19:55;10.93;;;6.13;;
54937;SDS011;52756;52.826;6.214;2023-04-01T20:27:49;9.13;;;6.43;;
54937;SDS011;52756;52.826;6.214;2023-04-01T20:35:47;10.10;;;6.35;;
54937;SDS011;52756;52.826;6.214;2023-04-01T20:41:08;8.50;;;6.20;;
54937;SDS011;52756;52.826;6.214;2023-04-01T20:49:14;8.88;;;6.80;;
54937;SDS011;52756;52.826;6.214;2023-04-01T20:54:45;11.27;;;7.30;;
54937;SDS011;52756;52.826;6.214;2023-04-01T20:57:40;14.52;;;7.65;;
54937;SDS011;52756;52.826;6.214;2023-04-01T21:00:19;15.68;;;7.78;;
54937;SDS011;52756;52.826;6.214;2023-04-01T21:06:44;13.50;;;7.47;;
54937;SDS011;52756;52.826;6.214;2023-04-01T21:12:22;12.15;;;7.18;;
54937;SDS011;52756;52.826;6.214;2023-04-01T21:14:59;12.30;;;7.25;;
54937;SDS011;52756;52.826;6.214;2023-04-01T21:26:07;10.07;;;6.80;;
54937;SDS011;52756;52.826;6.214;2023-04-01T21:29:25;15.52;;;7.70;;
54937;SDS011;52756;52.826;6.214;2023-04-01T21:31:49;11.95;;;7.38;;
54937;SDS011;52756;52.826;6.214;2023-04-01T22:07:01;11.63;;;6.20;;
54937;SDS011;52756;52.826;6.214;2023-04-01T22:09:34;11.68;;;7.15;;
54937;SDS011;52756;52.826;6.214;2023-04-01T22:12:09;7.97;;;5.90;;
54937;SDS011;52756;52.826;6.214;2023-04-01T22:20:39;8.85;;;6.03;;
54937;SDS011;52756;52.826;6.214;2023-04-01T22:26:14;11.68;;;6.28;;
54937;SDS011;52756;52.826;6.214;2023-04-01T22:29:09;9.43;;;6.25;;
54937;SDS011;52756;52.826;6.214;2023-04-01T22:32:00;9.50;;;6.00;;
54937;SDS011;52756;52.826;6.214;2023-04-01T22:45:18;10.48;;;5.72;;
54937;SDS011;52756;52.826;6.214;2023-04-01T22:48:29;9.27;;;5.95;;
54937;SDS011;52756;52.826;6.214;2023-04-01T22:51:17;10.10;;;5.50;;
54937;SDS011;52756;52.826;6.214;2023-04-01T22:56:20;10.95;;;6.18;;
54937;SDS011;52756;52.826;6.214;2023-04-01T22:58:56;11.98;;;5.63;;
54937;SDS011;52756;52.826;6.214;2023-04-01T23:01:36;9.20;;;5.90;;
54937;SDS011;52756;52.826;6.214;2023-04-01T23:04:09;9.30;;;5.88;;
54937;SDS011;52756;52.826;6.214;2023-04-01T23:06:42;11.77;;;6.35;;
54937;SDS011;52756;52.826;6.214;2023-04-01T23:09:19;9.40;;;6.03;;
54937;SDS011;52756;52.826;6.214;2023-04-01T23:12:02;9.95;;;5.28;;
54937;SDS011;52756;52.826;6.214;2023-04-01T23:14:37;10.88;;;5.88;;
54937;SDS011;52756;52.826;6.214;2023-04-01T23:28:17;10.85;;;5.75;;
54937;SDS011;52756;52.826;6.214;2023-04-01T23:30:48;11.15;;;5.97;;
54937;SDS011;52756;52.826;6.214;2023-04-01T23:35:50;10.55;;;5.40;;
54937;SDS011;52756;52.826;6.214;2023-04-01T23:38:32;9.50;;;5.38;;
54937;SDS011;52756;52.826;6.214;2023-04-01T23:41:09;8.60;;;5.25;;
54937;SDS011;52756;52.826;6.214;2023-04-01T23:46:46;8.68;;;5.30;;
54937;SDS011;52756;52.826;6.214;2023-04-01T23:49:16;10.27;;;5.10;;
54937;SDS011;52756;52.826;6.214;2023-04-01T23:51:50;7.55;;;4.50;;
54937;SDS011;52756;52.826;6.214;2023-04-01T23:55:11;8.20;;;5.20;;
54937;SDS011;52756;52.826;6.214;2023-04-01T23:57:13;9.13;;;5.13;;
54937;SDS011;52756;52.826;6.214;2023-04-01T23:59:42;8.70;;;5.13;;
